Time;durP1;ratioP1;P1;durP2;ratioP2;P2;SDS_P1;SDS_P2;PMS_P1;PMS_P2;Temp;Humidity;BMP_temperature;BMP_pressure;BME280_temperature;BME280_humidity;BME280_pressure;Samples;Min_cycle;Max_cycle;Signal;HPM_P1;HPM_P2
2023/03/11 00:01:31;;;;;;;4.00;1.23;;;1.00;99.90;;;;;;4996464;28;20045;-76
2023/03/11 00:03:59;;;;;;;5.38;1.08;;;1.40;99.90;;;;;;5028176;28;20050;-76
2023/03/11 00:06:24;;;;;;;6.25;1.17;;;1.00;99.90;;;;;;5026646;28;20056;-76
2023/03/11 00:08:51;;;;;;;3.92;1.02;;;1.00;99.90;;;;;;5028372;28;20389;-76
2023/03/11 00:11:18;;;;;;;4.07;1.63;;;2.40;99.90;;;;;;5012149;28;20756;-76
2023/03/11 00:13:44;;;;;;;4.22;0.85;;;2.20;99.90;;;;;;5030153;28;20046;-76
2023/03/11 00:16:10;;;;;;;5.22;1.33;;;1.00;99.90;;;;;;5016231;28;20370;-76
2023/03/11 00:18:35;;;;;;;11.35;1.33;;;1.00;99.90;;;;;;5032975;28;20045;-76
2023/03/11 00:21:01;;;;;;;6.93;1.20;;;1.10;99.90;;;;;;5032197;28;20072;-76
2023/03/11 00:23:27;;;;;;;6.13;0.95;;;1.30;99.90;;;;;;4997331;28;20505;-76
2023/03/11 00:25:53;;;;;;;10.57;1.42;;;1.20;99.90;;;;;;5032132;28;20045;-76
2023/03/11 00:28:21;;;;;;;2.67;0.70;;;1.30;99.90;;;;;;5016174;28;20047;-76
2023/03/11 00:30:46;;;;;;;3.55;0.90;;;1.00;99.90;;;;;;5032021;28;20045;-77
2023/03/11 00:33:14;;;;;;;4.43;1.05;;;1.00;99.90;;;;;;5015878;28;20042;-77
2023/03/11 00:35:40;;;;;;;3.28;1.10;;;0.90;99.90;;;;;;5032167;28;20037;-76
2023/03/11 00:38:08;;;;;;;1.48;0.63;;;1.60;99.90;;;;;;5032163;28;20478;-77
2023/03/11 00:40:35;;;;;;;3.85;0.75;;;0.90;99.90;;;;;;5015929;28;20099;-76
2023/03/11 00:43:00;;;;;;;7.55;0.93;;;1.20;99.90;;;;;;5015507;28;20047;-76
2023/03/11 00:45:27;;;;;;;4.03;1.10;;;1.10;99.90;;;;;;5031985;28;20471;-76
2023/03/11 00:47:54;;;;;;;3.70;0.77;;;0.80;99.90;;;;;;5031639;28;20045;-76
2023/03/11 00:50:23;;;;;;;1.30;0.70;;;0.80;99.90;;;;;;5015321;28;20049;-77
2023/03/11 00:52:50;;;;;;;4.57;1.00;;;0.80;99.90;;;;;;5031546;28;20037;-77
2023/03/11 00:55:30;;;;;;;4.10;0.98;;;0.80;99.90;;;;;;5032100;28;20044;-77
2023/03/11 00:57:59;;;;;;;2.22;0.80;;;0.80;99.90;;;;;;5031678;28;20053;-76
2023/03/11 01:00:27;;;;;;;5.97;1.08;;;0.80;99.90;;;;;;5031835;28;20425;-76
2023/03/11 01:02:53;;;;;;;3.97;0.90;;;0.80;99.90;;;;;;5031268;28;20045;-77
2023/03/11 01:05:21;;;;;;;4.32;0.93;;;0.80;99.90;;;;;;5031995;28;20387;-76
2023/03/11 01:07:47;;;;;;;2.40;0.90;;;0.80;99.90;;;;;;5030967;28;20124;-76
2023/03/11 01:10:13;;;;;;;6.53;1.50;;;1.80;99.90;;;;;;5015166;28;20132;-77
2023/03/11 01:12:39;;;;;;;2.70;0.90;;;0.90;99.90;;;;;;5029458;28;20497;-77
2023/03/11 01:15:06;;;;;;;2.80;1.08;;;0.80;99.90;;;;;;5014627;28;20116;-77
2023/03/11 01:17:32;;;;;;;4.55;0.90;;;1.90;99.90;;;;;;5015108;28;20045;-77
2023/03/11 01:19:57;;;;;;;3.05;0.88;;;0.70;99.90;;;;;;5030835;28;20033;-77
2023/03/11 01:22:23;;;;;;;2.20;0.90;;;0.70;99.90;;;;;;4998774;28;20042;-77
2023/03/11 01:24:49;;;;;;;6.13;0.90;;;0.70;99.90;;;;;;5030817;28;20169;-77
2023/03/11 01:27:14;;;;;;;4.30;0.70;;;0.70;99.90;;;;;;5014970;28;20135;-77
2023/03/11 01:29:40;;;;;;;3.90;0.77;;;0.70;99.90;;;;;;5031140;28;20303;-77
2023/03/11 01:32:06;;;;;;;5.67;1.47;;;0.80;99.90;;;;;;4980984;28;20378;-77
2023/03/11 01:34:34;;;;;;;3.30;0.70;;;0.80;99.90;;;;;;5031250;28;20044;-77
2023/03/11 01:37:01;;;;;;;2.70;1.15;;;0.70;99.90;;;;;;5030446;28;20042;-77
2023/03/11 01:39:27;;;;;;;3.83;0.80;;;0.80;99.90;;;;;;4998302;28;20037;-77
2023/03/11 01:41:54;;;;;;;1.05;0.70;;;0.80;99.90;;;;;;5030791;28;20516;-77
2023/03/11 01:44:20;;;;;;;4.68;1.05;;;1.20;99.90;;;;;;5015058;28;20042;-77
2023/03/11 01:46:52;;;;;;;5.53;0.88;;;0.80;99.90;;;;;;4998148;28;20059;-77
2023/03/11 01:49:19;;;;;;;3.20;0.95;;;1.20;99.90;;;;;;5030839;28;20109;-77
2023/03/11 01:51:50;;;;;;;2.00;0.70;;;1.80;99.90;;;;;;4998288;28;20065;-77
2023/03/11 01:54:27;;;;;;;4.70;1.00;;;0.70;99.90;;;;;;5014595;28;20559;-77
2023/03/11 01:56:54;;;;;;;4.05;0.80;;;1.10;99.90;;;;;;5030607;28;20509;-77
2023/03/11 01:59:31;;;;;;;2.28;0.80;;;0.70;99.90;;;;;;5030844;28;20053;-77
2023/03/11 02:02:28;;;;;;;1.58;0.50;;;1.20;99.90;;;;;;5030533;28;20465;-77
2023/03/11 02:04:55;;;;;;;3.08;0.90;;;0.70;99.90;;;;;;5029401;28;20063;-77
2023/03/11 02:07:21;;;;;;;4.35;0.90;;;1.10;99.90;;;;;;5030564;28;20512;-77
2023/03/11 02:09:47;;;;;;;3.97;0.80;;;1.00;99.90;;;;;;5030612;28;20092;-77
2023/03/11 02:12:14;;;;;;;2.47;0.95;;;2.20;99.90;;;;;;5030214;28;20117;-77
2023/03/11 02:14:44;;;;;;;3.85;0.82;;;0.70;99.90;;;;;;5030921;28;20397;-77
2023/03/11 02:17:10;;;;;;;3.80;0.80;;;1.60;99.90;;;;;;5030154;28;20037;-77
2023/03/11 02:19:54;;;;;;;5.50;1.17;;;0.60;99.90;;;;;;5013998;28;20092;-77
2023/03/11 02:22:20;;;;;;;4.50;0.90;;;0.70;99.90;;;;;;5029833;28;20042;-77
2023/03/11 02:24:56;;;;;;;4.45;1.02;;;0.60;99.90;;;;;;5029620;28;20061;-78
2023/03/11 02:27:24;;;;;;;2.30;0.75;;;0.60;99.90;;;;;;5030315;28;20045;-77
2023/03/11 02:29:50;;;;;;;6.88;0.80;;;0.80;99.90;;;;;;5030149;28;20091;-77
2023/03/11 02:32:17;;;;;;;5.38;0.93;;;0.50;99.90;;;;;;5013375;28;20149;-77
2023/03/11 02:34:43;;;;;;;3.38;0.85;;;0.40;99.90;;;;;;4998145;28;20029;-77
2023/03/11 02:37:11;;;;;;;6.75;0.85;;;0.40;99.90;;;;;;5012962;28;20388;-77
2023/03/11 02:39:41;;;;;;;1.33;0.63;;;0.40;99.90;;;;;;5030300;28;20080;-77
2023/03/11 02:42:11;;;;;;;2.20;0.60;;;0.40;99.90;;;;;;5029399;28;20038;-77
2023/03/11 02:44:38;;;;;;;2.63;0.80;;;0.30;99.90;;;;;;5027727;28;20042;-77
2023/03/11 02:47:05;;;;;;;2.38;0.80;;;0.30;99.90;;;;;;5012935;28;20037;-77
2023/03/11 02:49:31;;;;;;;2.58;1.00;;;0.30;99.90;;;;;;5030078;28;20412;-77
2023/03/11 02:51:56;;;;;;;3.72;0.80;;;0.90;99.90;;;;;;5029383;28;20390;-77
2023/03/11 02:54:22;;;;;;;3.00;0.77;;;1.30;99.90;;;;;;5029730;28;20037;-77
2023/03/11 02:56:48;;;;;;;3.13;1.00;;;1.50;99.90;;;;;;5029825;28;20482;-77
2023/03/11 02:59:13;;;;;;;1.63;0.80;;;1.10;99.90;;;;;;5010383;28;20501;-77
2023/03/11 03:01:39;;;;;;;2.33;0.82;;;0.10;99.90;;;;;;5029765;28;20029;-77
2023/03/11 03:04:05;;;;;;;1.63;0.90;;;0.10;99.90;;;;;;5029584;28;20053;-77
2023/03/11 03:06:30;;;;;;;4.90;0.85;;;0.20;99.90;;;;;;5029502;28;20215;-77
2023/03/11 03:08:56;;;;;;;3.20;0.70;;;0.10;99.90;;;;;;5029199;28;20051;-77
2023/03/11 03:11:22;;;;;;;2.72;0.70;;;0.00;99.90;;;;;;5029959;28;20450;-77
2023/03/11 03:13:48;;;;;;;2.45;0.80;;;0.40;99.90;;;;;;5029683;28;20037;-77
2023/03/11 03:16:13;;;;;;;2.22;0.70;;;0.00;99.90;;;;;;5013163;28;20064;-77
2023/03/11 03:18:39;;;;;;;0.82;0.68;;;-0.10;99.90;;;;;;5012989;28;20038;-77
2023/03/11 03:21:05;;;;;;;1.95;0.60;;;-0.20;99.90;;;;;;5029083;28;20418;-77
2023/03/11 03:23:36;;;;;;;1.13;0.80;;;0.00;99.90;;;;;;5029498;28;20044;-77
2023/03/11 03:26:03;;;;;;;3.10;0.80;;;-0.30;99.90;;;;;;5027880;28;20041;-77
2023/03/11 03:28:28;;;;;;;3.42;0.75;;;-0.40;99.90;;;;;;5011878;28;20049;-77
2023/03/11 03:30:54;;;;;;;1.65;0.80;;;-0.40;99.90;;;;;;5029369;28;20049;-76
2023/03/11 03:33:19;;;;;;;6.65;2.00;;;1.10;99.90;;;;;;5028764;28;20037;-76
2023/03/11 03:35:45;;;;;;;2.72;0.90;;;-0.50;99.90;;;;;;5029265;28;20041;-76
2023/03/11 03:38:11;;;;;;;2.30;0.82;;;-0.60;99.90;;;;;;5028709;28;20041;-77
2023/03/11 03:40:37;;;;;;;2.15;0.70;;;-0.60;99.90;;;;;;5029283;28;20038;-76
2023/03/11 03:43:04;;;;;;;1.40;0.90;;;-0.30;99.90;;;;;;5028886;28;20470;-77
2023/03/11 03:45:30;;;;;;;2.33;0.75;;;-0.70;99.90;;;;;;5028979;28;20041;-76
2023/03/11 03:47:56;;;;;;;1.23;0.90;;;-0.70;99.90;;;;;;5029124;28;20052;-77
2023/03/11 03:50:21;;;;;;;2.20;0.80;;;-0.80;99.90;;;;;;5012741;28;20041;-77
2023/03/11 03:52:47;;;;;;;3.75;0.93;;;-0.30;99.90;;;;;;5029628;28;20345;-76
2023/03/11 03:55:13;;;;;;;4.47;0.60;;;-0.70;99.90;;;;;;5028815;28;20041;-77
2023/03/11 03:57:38;;;;;;;3.25;0.93;;;-0.90;99.90;;;;;;5013368;28;20063;-76
2023/03/11 04:00:07;;;;;;;1.40;0.70;;;-0.90;99.90;;;;;;5028890;28;20085;-76
2023/03/11 04:02:33;;;;;;;4.32;0.75;;;-0.90;99.90;;;;;;5029371;28;20473;-76
2023/03/11 04:04:59;;;;;;;1.05;0.70;;;-0.60;99.90;;;;;;5028610;28;20049;-77
2023/03/11 04:07:25;;;;;;;1.40;0.93;;;-0.90;99.90;;;;;;5012662;28;20030;-77
2023/03/11 04:09:50;;;;;;;2.85;0.73;;;-1.00;99.90;;;;;;5012763;28;20073;-76
2023/03/11 04:12:16;;;;;;;5.18;1.20;;;-1.00;99.90;;;;;;5011925;28;20103;-77
2023/03/11 04:14:43;;;;;;;2.38;0.90;;;-1.10;99.90;;;;;;5012279;28;20057;-77
2023/03/11 04:17:11;;;;;;;1.85;0.70;;;0.20;99.90;;;;;;5028192;28;20109;-77
2023/03/11 04:19:37;;;;;;;1.42;0.60;;;-1.20;99.90;;;;;;5012495;28;20486;-77
2023/03/11 04:22:03;;;;;;;2.03;0.85;;;-1.20;99.90;;;;;;4995351;28;20037;-77
2023/03/11 04:24:29;;;;;;;3.75;0.88;;;-1.20;99.90;;;;;;5012338;28;20060;-77
2023/03/11 04:26:55;;;;;;;2.03;1.00;;;-1.30;99.90;;;;;;5030594;28;20040;-77
2023/03/11 04:29:20;;;;;;;3.03;1.00;;;-1.30;99.90;;;;;;5011779;28;20610;-76
2023/03/11 04:31:46;;;;;;;2.03;0.80;;;-1.30;99.90;;;;;;5028277;28;20090;-77
2023/03/11 04:34:12;;;;;;;2.55;0.98;;;-1.30;99.90;;;;;;5028004;28;20044;-77
2023/03/11 04:36:37;;;;;;;2.03;0.90;;;-1.40;99.90;;;;;;5028316;28;20034;-77
2023/03/11 04:39:04;;;;;;;3.13;1.08;;;-1.40;99.90;;;;;;5011582;28;20040;-77
2023/03/11 04:41:29;;;;;;;;;;;-1.40;99.90;;;;;;5012810;28;20379;-77
2023/03/11 04:43:55;;;;;;;4.90;0.80;;;-1.50;99.90;;;;;;5012215;28;19932;-77
2023/03/11 04:46:21;;;;;;;1.80;0.80;;;-1.40;99.90;;;;;;5011769;28;20120;-77
2023/03/11 04:48:47;;;;;;;4.63;1.20;;;-1.50;99.90;;;;;;5012442;28;20371;-77
2023/03/11 04:51:12;;;;;;;1.10;1.00;;;-1.50;99.90;;;;;;5028306;28;20057;-77
2023/03/11 04:53:38;;;;;;;1.67;0.82;;;-1.50;99.90;;;;;;5012182;28;20045;-77
2023/03/11 04:56:04;;;;;;;3.33;0.90;;;-1.60;99.90;;;;;;5011951;28;20113;-76
2023/03/11 04:58:29;;;;;;;2.00;1.00;;;-1.60;99.90;;;;;;5028818;28;20084;-77
2023/03/11 05:00:55;;;;;;;3.70;0.93;;;-1.10;99.90;;;;;;5031856;28;20490;-77
2023/03/11 05:03:21;;;;;;;2.35;0.90;;;-1.70;99.90;;;;;;5015157;28;20056;-77
2023/03/11 05:05:47;;;;;;;3.53;1.08;;;-0.80;99.90;;;;;;5031880;28;20041;-77
2023/03/11 05:08:12;;;;;;;3.40;0.82;;;-1.70;99.90;;;;;;5015093;28;20044;-77
2023/03/11 05:10:41;;;;;;;1.73;0.93;;;-1.50;99.90;;;;;;5032188;28;20091;-77
2023/03/11 05:13:07;;;;;;;4.82;0.90;;;-1.80;99.90;;;;;;5029238;28;20103;-76
2023/03/11 05:15:33;;;;;;;4.30;1.70;;;-1.00;99.90;;;;;;5015389;28;20037;-76
2023/03/11 05:17:59;;;;;;;1.77;1.00;;;-1.80;99.90;;;;;;5015568;28;20029;-77
2023/03/11 05:20:25;;;;;;;5.78;1.10;;;-1.80;99.90;;;;;;5031601;28;20044;-76
2023/03/11 05:22:51;;;;;;;1.80;0.90;;;-1.80;99.90;;;;;;5031928;28;20405;-77
2023/03/11 05:25:16;;;;;;;2.50;1.08;;;-1.80;99.90;;;;;;5031285;28;20045;-76
2023/03/11 05:27:42;;;;;;;2.45;1.00;;;-1.80;99.90;;;;;;5031706;28;20048;-77
2023/03/11 05:30:09;;;;;;;9.63;1.58;;;-1.80;99.90;;;;;;5031140;28;20076;-77
2023/03/11 05:32:34;;;;;;;;;;;-1.90;99.90;;;;;;5031866;28;20045;-76
2023/03/11 05:35:00;;;;;;;3.95;1.40;;;-1.90;99.90;;;;;;5032335;28;19943;-77
2023/03/11 05:37:26;;;;;;;5.35;0.80;;;-1.90;99.90;;;;;;4998261;28;20159;-77
2023/03/11 05:39:52;;;;;;;1.35;0.90;;;-0.90;99.90;;;;;;5014908;28;20034;-77
2023/03/11 05:42:18;;;;;;;2.38;1.10;;;-1.90;99.90;;;;;;5014760;28;20041;-76
2023/03/11 05:44:43;;;;;;;3.97;1.10;;;-1.90;99.90;;;;;;5015295;28;20120;-77
2023/03/11 05:47:09;;;;;;;4.93;1.10;;;-1.90;99.90;;;;;;5031382;28;20041;-77
2023/03/11 05:49:35;;;;;;;3.33;1.13;;;-2.00;99.90;;;;;;5014996;28;20061;-76
2023/03/11 05:52:01;;;;;;;3.40;1.25;;;-1.90;99.90;;;;;;5014726;28;20045;-76
2023/03/11 05:54:26;;;;;;;8.88;1.52;;;-1.40;99.90;;;;;;5031151;28;20038;-77
2023/03/11 05:56:52;;;;;;;8.23;1.83;;;-1.20;99.90;;;;;;5029987;28;20056;-77
2023/03/11 05:59:18;;;;;;;2.25;1.00;;;-1.30;99.90;;;;;;5014073;28;20053;-77
2023/03/11 06:01:44;;;;;;;2.75;1.05;;;-2.00;99.90;;;;;;4998085;28;20051;-77
2023/03/11 06:04:10;;;;;;;6.97;1.27;;;-0.80;99.90;;;;;;5014128;28;20059;-77
2023/03/11 06:06:37;;;;;;;5.30;0.90;;;-2.00;99.90;;;;;;5031042;28;20033;-77
2023/03/11 06:09:03;;;;;;;2.20;1.13;;;-2.00;99.90;;;;;;5014543;28;20053;-77
2023/03/11 06:11:29;;;;;;;4.85;1.30;;;-2.00;99.90;;;;;;5013120;28;20135;-77
2023/03/11 06:13:56;;;;;;;5.78;1.52;;;-2.00;99.90;;;;;;5013741;28;20114;-77
2023/03/11 06:16:23;;;;;;;3.60;1.17;;;-2.00;99.90;;;;;;5030199;28;20113;-77
2023/03/11 06:18:49;;;;;;;4.53;1.48;;;-2.00;99.90;;;;;;5030710;28;20110;-77
2023/03/11 06:21:17;;;;;;;4.78;1.25;;;-2.00;99.90;;;;;;4997536;28;20030;-77
2023/03/11 06:23:43;;;;;;;3.35;1.70;;;-2.00;99.90;;;;;;5013912;28;20045;-77
2023/03/11 06:26:10;;;;;;;5.35;1.40;;;-2.00;99.90;;;;;;5030293;28;20048;-77
2023/03/11 06:28:36;;;;;;;4.35;1.20;;;-2.00;99.90;;;;;;5030460;28;20037;-77
2023/03/11 06:31:10;;;;;;;4.85;1.25;;;-2.00;99.90;;;;;;5030783;28;20167;-77
2023/03/11 06:33:36;;;;;;;3.50;1.13;;;-2.00;99.90;;;;;;5030404;28;20048;-78
2023/03/11 06:36:04;;;;;;;2.80;1.65;;;-1.90;99.90;;;;;;5030526;28;20365;-77
2023/03/11 06:38:30;;;;;;;1.85;1.10;;;-1.90;99.90;;;;;;5030507;28;20091;-77
2023/03/11 06:41:04;;;;;;;5.30;1.30;;;-1.80;99.90;;;;;;5014303;28;20056;-77
2023/03/11 06:43:31;;;;;;;4.10;1.15;;;-1.70;99.90;;;;;;5013737;28;20045;-77
2023/03/11 06:45:58;;;;;;;4.75;1.33;;;-1.10;99.90;;;;;;5014508;28;20486;-77
2023/03/11 06:48:24;;;;;;;;;;;-1.60;99.90;;;;;;5030523;28;20056;-77
2023/03/11 06:50:58;;;;;;;3.33;1.27;;;-0.40;99.90;;;;;;5014383;28;20360;-78
2023/03/11 06:53:24;;;;;;;4.18;1.40;;;-1.00;99.90;;;;;;5001823;28;20371;-77
2023/03/11 06:56:16;;;;;;;;;;;-1.30;99.90;;;;;;5014461;28;20343;-76
2023/03/11 06:58:42;;;;;;;4.85;1.27;;;-1.10;99.90;;;;;;5028805;28;20019;-78
2023/03/11 07:01:13;;;;;;;6.63;1.52;;;-0.50;99.90;;;;;;5030091;28;20084;-78
2023/03/11 07:03:38;;;;;;;3.80;1.27;;;-0.10;99.90;;;;;;5010874;28;20045;-78
2023/03/11 07:06:05;;;;;;;2.30;1.23;;;-0.70;99.90;;;;;;5029919;28;20046;-78
2023/03/11 07:08:31;;;;;;;2.85;1.30;;;-0.60;99.90;;;;;;5029388;28;20107;-76
2023/03/11 07:11:25;;;;;;;4.05;1.73;;;-0.40;99.90;;;;;;5029931;28;20041;-77
2023/03/11 07:13:52;;;;;;;1.98;1.25;;;-0.30;99.90;;;;;;5026544;28;20056;-76
2023/03/11 07:16:21;;;;;;;3.88;1.05;;;-0.10;99.90;;;;;;5029692;28;20041;-76
2023/03/11 07:18:48;;;;;;;2.45;1.40;;;0.00;99.90;;;;;;5029019;28;20116;-77
2023/03/11 07:21:16;;;;;;;5.22;1.30;;;0.20;99.90;;;;;;5012161;28;20033;-77
2023/03/11 07:23:43;;;;;;;4.75;1.40;;;1.50;99.90;;;;;;5009352;28;20045;-76
2023/03/11 07:26:10;;;;;;;4.00;1.40;;;0.50;99.90;;;;;;5029070;28;20119;-77
2023/03/11 07:28:36;;;;;;;4.80;1.60;;;2.10;99.90;;;;;;5012827;28;20045;-77
2023/03/11 07:31:12;;;;;;;;;;;0.90;99.90;;;;;;5029792;28;20125;-76
2023/03/11 07:33:37;;;;;;;4.30;1.50;;;1.10;99.90;;;;;;5043378;28;19932;-76
2023/03/11 07:36:08;;;;;;;3.45;1.55;;;1.40;99.90;;;;;;5028991;28;20041;-76
2023/03/11 07:38:34;;;;;;;3.92;1.20;;;1.50;99.90;;;;;;4996138;28;20044;-77
2023/03/11 07:41:01;;;;;;;4.80;1.33;;;1.70;99.90;;;;;;5013276;28;20044;-77
2023/03/11 07:43:27;;;;;;;1.98;1.13;;;1.90;99.90;;;;;;5012639;28;20056;-77
2023/03/11 07:46:10;;;;;;;2.97;1.77;;;2.00;99.90;;;;;;5029542;28;20041;-77
2023/03/11 07:48:38;;;;;;;3.83;1.23;;;2.10;99.90;;;;;;5027189;28;20045;-78
2023/03/11 07:51:08;;;;;;;3.58;1.23;;;3.00;99.90;;;;;;5013515;28;20038;-79
2023/03/11 07:53:34;;;;;;;3.60;1.20;;;2.40;99.90;;;;;;5013370;28;20037;-78
2023/03/11 07:56:01;;;;;;;5.75;1.52;;;3.10;99.90;;;;;;5030145;28;20369;-78
2023/03/11 07:58:26;;;;;;;4.63;1.30;;;4.20;99.90;;;;;;5029568;28;20029;-78
2023/03/11 08:00:55;;;;;;;2.50;0.80;;;4.80;99.90;;;;;;5012825;28;20103;-78
2023/03/11 08:03:22;;;;;;;6.25;0.93;;;5.50;99.90;;;;;;4996531;28;20064;-79
2023/03/11 08:05:48;;;;;;;3.85;1.30;;;6.10;99.90;;;;;;5029567;28;20033;-79
2023/03/11 08:08:14;;;;;;;2.88;0.93;;;6.50;99.90;;;;;;5013658;28;20424;-78
2023/03/11 08:10:40;;;;;;;4.47;1.15;;;6.90;99.90;;;;;;4997305;28;20034;-80
2023/03/11 08:13:06;;;;;;;2.70;1.20;;;7.30;99.90;;;;;;4997489;28;20113;-80
2023/03/11 08:15:31;;;;;;;6.22;1.30;;;7.50;99.90;;;;;;5030093;28;20034;-80
2023/03/11 08:17:57;;;;;;;5.43;1.30;;;7.80;99.90;;;;;;5030065;28;20045;-82
2023/03/11 08:20:23;;;;;;;3.78;1.08;;;8.20;99.90;;;;;;5012343;28;20276;-80
2023/03/11 08:22:48;;;;;;;5.78;1.73;;;8.20;99.90;;;;;;5013420;28;20175;-77
2023/03/11 08:25:14;;;;;;;2.75;0.90;;;8.50;99.90;;;;;;5013117;28;20056;-80
2023/03/11 08:27:40;;;;;;;2.17;0.90;;;8.80;99.90;;;;;;5013022;28;20030;-78
2023/03/11 08:30:08;;;;;;;4.88;1.10;;;8.90;99.90;;;;;;5029072;28;20126;-78
2023/03/11 08:32:34;;;;;;;2.67;0.88;;;9.60;99.90;;;;;;5028950;28;20509;-78
2023/03/11 08:35:00;;;;;;;4.22;1.10;;;10.00;99.90;;;;;;5031591;28;20049;-78
2023/03/11 08:37:25;;;;;;;3.50;0.90;;;10.40;99.90;;;;;;5016217;28;20041;-78
2023/03/11 08:39:51;;;;;;;3.23;0.93;;;10.60;99.90;;;;;;5032548;28;20428;-78
2023/03/11 08:42:17;;;;;;;4.25;1.30;;;10.80;99.90;;;;;;5016729;28;20382;-78
2023/03/11 08:44:43;;;;;;;2.58;0.90;;;11.20;99.90;;;;;;5032314;28;20056;-78
2023/03/11 08:47:09;;;;;;;3.90;1.20;;;11.20;99.90;;;;;;5032609;28;20083;-78
2023/03/11 08:49:36;;;;;;;2.90;0.73;;;11.60;99.90;;;;;;5032528;28;20045;-79
2023/03/11 08:52:02;;;;;;;4.10;0.95;;;11.70;99.90;;;;;;5032784;28;20029;-79
2023/03/11 08:54:28;;;;;;;5.82;0.90;;;11.90;99.90;;;;;;5015299;28;20039;-78
2023/03/11 08:56:53;;;;;;;7.15;0.90;;;12.10;99.90;;;;;;4997444;28;20490;-79
2023/03/11 08:59:19;;;;;;;2.63;0.65;;;11.90;99.90;;;;;;5015573;28;20034;-78
2023/03/11 09:01:45;;;;;;;3.05;0.80;;;12.20;99.90;;;;;;5015613;28;20053;-79
2023/03/11 09:04:11;;;;;;;3.60;0.93;;;12.10;99.90;;;;;;4999922;28;20482;-79
2023/03/11 09:06:42;;;;;;;5.13;1.08;;;12.10;99.90;;;;;;5016546;28;20033;-81
2023/03/11 09:09:10;;;;;;;4.30;0.90;;;12.40;99.90;;;;;;5033144;28;20041;-79
2023/03/11 09:11:36;;;;;;;4.07;0.80;;;12.90;99.90;;;;;;5032952;28;20080;-79
2023/03/11 09:14:03;;;;;;;3.03;1.00;;;12.90;99.90;;;;;;5032567;28;20122;-80
2023/03/11 09:16:29;;;;;;;3.70;0.90;;;13.20;99.90;;;;;;5015864;28;20107;-81
2023/03/11 09:18:54;;;;;;;5.45;1.20;;;13.30;99.90;;;;;;5032831;28;20045;-80
2023/03/11 09:21:21;;;;;;;3.03;1.02;;;13.30;99.90;;;;;;5015926;28;20041;-79
2023/03/11 09:23:46;;;;;;;;;;;13.50;99.90;;;;;;5016546;28;20076;-80
2023/03/11 09:26:13;;;;;;;5.22;1.13;;;13.50;99.40;;;;;;5032022;28;19921;-79
2023/03/11 09:28:40;;;;;;;3.10;0.90;;;13.80;98.90;;;;;;5031331;28;20326;-78
2023/03/11 09:31:06;;;;;;;4.03;0.98;;;13.90;98.60;;;;;;5031430;28;20088;-80
2023/03/11 09:33:36;;;;;;;4.10;1.05;;;13.80;99.30;;;;;;5013965;28;20033;-79
2023/03/11 09:36:02;;;;;;;7.13;1.10;;;13.80;99.50;;;;;;5030644;28;20037;-79
2023/03/11 09:38:27;;;;;;;4.93;1.02;;;13.50;99.90;;;;;;5014546;28;20487;-79
2023/03/11 09:40:56;;;;;;;5.80;0.90;;;13.60;99.90;;;;;;5014264;28;20549;-80
2023/03/11 09:43:49;;;;;;;4.45;0.93;;;13.30;99.80;;;;;;5014770;28;20045;-79
2023/03/11 09:46:32;;;;;;;4.60;0.90;;;13.40;98.60;;;;;;5014339;28;20100;-79
2023/03/11 09:49:07;;;;;;;2.55;0.73;;;13.60;98.10;;;;;;5015180;28;20037;-79
2023/03/11 09:51:40;;;;;;;4.78;1.33;;;13.70;99.90;;;;;;5030781;28;20045;-80
2023/03/11 09:54:11;;;;;;;3.85;1.27;;;13.80;98.00;;;;;;5015182;28;20366;-79
2023/03/11 09:56:38;;;;;;;3.38;1.00;;;14.00;97.90;;;;;;5028909;28;20464;-79
2023/03/11 09:59:14;;;;;;;3.53;1.27;;;13.80;99.80;;;;;;5031287;28;20076;-79
2023/03/11 10:01:46;;;;;;;4.18;1.20;;;14.00;99.10;;;;;;5014058;28;20103;-79
2023/03/11 10:04:17;;;;;;;3.75;1.05;;;14.00;98.60;;;;;;5031092;28;20053;-79
2023/03/11 10:06:44;;;;;;;2.08;0.80;;;14.20;97.90;;;;;;5030410;28;20051;-80
2023/03/11 10:09:34;;;;;;;3.78;1.10;;;14.40;97.80;;;;;;5030749;28;20048;-79
2023/03/11 10:12:05;;;;;;;4.50;0.82;;;14.70;97.90;;;;;;5029715;28;20045;-79
2023/03/11 10:14:58;;;;;;;4.55;0.77;;;15.30;97.90;;;;;;5011773;28;20052;-79
2023/03/11 10:17:33;;;;;;;3.10;0.73;;;15.30;96.90;;;;;;5014191;28;20454;-80
2023/03/11 10:20:05;;;;;;;6.05;0.80;;;15.80;96.30;;;;;;5012765;28;20041;-80
2023/03/11 10:23:12;;;;;;;4.43;0.77;;;15.80;96.70;;;;;;5030702;28;20049;-80
2023/03/11 10:25:55;;;;;;;5.28;0.90;;;15.70;96.40;;;;;;5012199;28;20041;-79
2023/03/11 10:28:27;;;;;;;3.63;1.00;;;15.70;95.80;;;;;;5028899;28;20045;-79
2023/03/11 10:31:04;;;;;;;3.58;0.70;;;15.20;96.00;;;;;;5030094;28;20041;-79
2023/03/11 10:34:03;;;;;;;3.40;0.90;;;15.30;96.60;;;;;;5013862;28;20046;-79
2023/03/11 10:36:50;;;;;;;2.10;0.80;;;15.30;97.60;;;;;;5046521;28;20041;-79
2023/03/11 10:39:16;;;;;;;4.20;1.00;;;15.50;95.80;;;;;;5030358;28;20087;-79
2023/03/11 10:41:56;;;;;;;4.57;1.02;;;15.20;97.10;;;;;;5030113;28;20112;-79
2023/03/11 10:44:31;;;;;;;4.20;1.10;;;15.40;98.40;;;;;;5031098;28;20482;-79
2023/03/11 10:46:57;;;;;;;4.78;0.98;;;15.60;97.80;;;;;;5030410;28;20068;-79
2023/03/11 10:49:23;;;;;;;3.78;1.15;;;15.80;97.40;;;;;;4997426;28;20077;-79
2023/03/11 10:51:51;;;;;;;2.65;1.08;;;15.50;97.20;;;;;;5013602;28;20084;-79
2023/03/11 10:54:25;;;;;;;3.13;0.82;;;15.70;97.30;;;;;;5013669;28;20455;-79
2023/03/11 10:56:59;;;;;;;4.03;1.00;;;15.90;96.40;;;;;;5027011;28;20541;-79
2023/03/11 10:59:44;;;;;;;4.00;1.20;;;15.70;97.10;;;;;;5029812;28;20033;-79
2023/03/11 11:02:50;;;;;;;3.97;0.73;;;15.40;96.50;;;;;;5030418;28;20073;-79
2023/03/11 11:05:21;;;;;;;4.35;1.00;;;15.00;96.90;;;;;;5028166;28;20055;-80
2023/03/11 11:07:49;;;;;;;2.78;0.90;;;15.30;96.40;;;;;;5013252;28;20487;-79
2023/03/11 11:10:23;;;;;;;3.47;0.80;;;14.80;96.70;;;;;;5029781;28;20091;-79
2023/03/11 11:12:54;;;;;;;3.22;0.70;;;14.90;97.00;;;;;;5013014;28;20042;-79
2023/03/11 11:16:03;;;;;;;2.53;0.63;;;14.80;97.20;;;;;;5028695;28;20100;-79
2023/03/11 11:18:48;;;;;;;1.90;0.60;;;14.80;97.00;;;;;;5021861;28;20448;-79
2023/03/11 11:21:36;;;;;;;3.42;0.73;;;15.20;96.50;;;;;;5028137;28;20116;-79
2023/03/11 11:24:17;;;;;;;2.15;0.60;;;15.40;96.80;;;;;;5011395;28;20548;-79
2023/03/11 11:27:03;;;;;;;3.35;0.70;;;15.40;95.60;;;;;;5028772;28;20044;-79
2023/03/11 11:29:29;;;;;;;3.50;0.63;;;15.60;96.20;;;;;;5008311;28;20041;-79
2023/03/11 11:32:20;;;;;;;3.50;0.88;;;16.30;95.60;;;;;;5029929;28;20037;-79
2023/03/11 11:35:04;;;;;;;3.88;0.60;;;16.20;95.30;;;;;;5029057;28;20049;-79
2023/03/11 11:37:33;;;;;;;2.50;0.70;;;16.20;95.00;;;;;;5027521;28;20526;-79
2023/03/11 11:40:09;;;;;;;2.88;0.68;;;16.30;95.50;;;;;;5029146;28;20041;-80
2023/03/11 11:42:37;;;;;;;4.35;0.70;;;16.20;95.60;;;;;;5027960;28;20033;-79
2023/03/11 11:45:09;;;;;;;4.50;0.90;;;15.80;95.50;;;;;;5013886;28;20045;-79
2023/03/11 11:47:38;;;;;;;2.85;0.93;;;15.50;95.50;;;;;;5030020;28;20048;-79
2023/03/11 11:50:10;;;;;;;4.80;0.98;;;15.40;95.20;;;;;;5030085;28;20049;-80
2023/03/11 11:52:42;;;;;;;3.85;0.80;;;15.60;95.60;;;;;;5028092;28;20041;-79
2023/03/11 11:55:25;;;;;;;4.55;1.00;;;15.50;95.30;;;;;;5014249;28;20481;-80
2023/03/11 11:57:51;;;;;;;3.67;1.08;;;15.50;96.00;;;;;;5062936;28;20474;-80
2023/03/11 12:00:24;;;;;;;2.17;0.70;;;16.00;96.10;;;;;;4996559;28;20057;-80
2023/03/11 12:03:15;;;;;;;5.35;0.73;;;16.30;94.90;;;;;;5030388;28;20053;-80
2023/03/11 12:05:51;;;;;;;2.92;0.80;;;16.40;95.60;;;;;;5026987;28;20048;-80
2023/03/11 12:08:25;;;;;;;4.55;0.70;;;16.40;95.10;;;;;;5028598;28;20053;-80
2023/03/11 12:11:07;;;;;;;1.50;0.60;;;16.10;93.80;;;;;;5032951;28;20183;-82
2023/03/11 12:13:45;;;;;;;4.25;0.70;;;16.30;93.90;;;;;;5034388;28;20452;-80
2023/03/11 12:16:23;;;;;;;5.85;0.60;;;15.80;94.70;;;;;;5035178;28;20493;-80
2023/03/11 12:18:57;;;;;;;2.67;0.63;;;16.30;94.00;;;;;;5034475;28;20034;-81
2023/03/11 12:21:45;;;;;;;2.35;0.50;;;16.30;93.90;;;;;;5034101;28;20078;-79
2023/03/11 12:24:46;;;;;;;4.30;0.70;;;16.30;93.70;;;;;;5031231;28;20077;-79
2023/03/11 12:27:18;;;;;;;3.47;0.70;;;16.00;93.60;;;;;;4957055;28;20077;-81
2023/03/11 12:29:47;;;;;;;2.53;0.60;;;15.80;93.70;;;;;;5004700;28;20049;-81
2023/03/11 12:32:33;;;;;;;2.75;0.98;;;15.70;93.80;;;;;;5015343;28;20041;-79
2023/03/11 12:35:23;;;;;;;3.47;0.60;;;15.60;93.80;;;;;;5032194;28;20369;-79
2023/03/11 12:38:12;;;;;;;2.95;0.70;;;15.30;93.40;;;;;;5032435;28;20128;-78
2023/03/11 12:40:43;;;;;;;2.10;0.70;;;15.10;94.00;;;;;;5020523;28;20425;-79
2023/03/11 12:43:41;;;;;;;4.95;0.55;;;14.80;94.00;;;;;;5015933;28;20042;-80
2023/03/11 12:46:10;;;;;;;2.75;0.52;;;14.90;93.90;;;;;;5000835;28;20050;-81
2023/03/11 12:48:45;;;;;;;2.17;0.50;;;14.90;93.90;;;;;;5033007;28;20045;-81
2023/03/11 12:51:36;;;;;;;3.15;0.50;;;14.90;94.70;;;;;;5032616;28;20045;-80
2023/03/11 12:54:29;;;;;;;2.50;0.60;;;14.70;93.90;;;;;;5031179;28;20049;-82
2023/03/11 12:57:22;;;;;;;1.15;0.35;;;14.60;94.80;;;;;;5033061;28;20057;-82
2023/03/11 12:59:54;;;;;;;4.53;0.60;;;14.60;94.40;;;;;;5015317;28;20440;-81
2023/03/11 13:03:00;;;;;;;6.97;0.60;;;14.90;94.30;;;;;;5031095;28;20124;-81
2023/03/11 13:05:34;;;;;;;5.50;0.50;;;15.40;94.00;;;;;;5032322;28;20160;-84
2023/03/11 13:08:10;;;;;;;3.22;0.55;;;15.80;94.00;;;;;;5032980;28;20435;-85